Terminal Aerodrome Forecast
Issued by NWS

Home | Current Version | Previous Version | Text Only | Print | Product List | Glossary On
Versions: 1 2 3 4 5 6 7 8 9 10 11 12 13 14 15 16
000
FTUS41 KBGM 211100
TAFRME
TAF
KRME 211139Z 2112/2212 10005KT P6SM SCT025 BKN100
      TEMPO 2112/2114 OVC025
     FM211500 14005KT P6SM BKN045
     FM211800 16005KT 5SM SHRA BR BKN025 OVC040
     FM220000 10003KT 3SM BR OVC015=

USA.gov is the U.S. government's official web portal to all federal, state and local government web resources and services.